createdAt,value
2019-01-22T00:00:45.900Z,-2.10
2019-01-22T00:03:17.123Z,-2.10
2019-01-22T00:05:48.210Z,-2.40
2019-01-22T00:08:20.818Z,-2.30
2019-01-22T00:10:51.794Z,-2.20
2019-01-22T00:13:22.871Z,-2.20
2019-01-22T00:15:56.200Z,-2.10
2019-01-22T00:18:30.546Z,-2.30
2019-01-22T00:21:03.769Z,-2.20
2019-01-22T00:23:34.494Z,-2.20
2019-01-22T00:26:21.001Z,-2.20
2019-01-22T00:28:51.544Z,-2.20
2019-01-22T00:31:33.863Z,-2.30
2019-01-22T00:34:10.426Z,-2.40
2019-01-22T00:36:47.336Z,-2.40
2019-01-22T00:39:18.723Z,-2.40
2019-01-22T00:41:52.873Z,-2.40
2019-01-22T00:44:24.357Z,-2.50
2019-01-22T00:46:55.472Z,-2.50
2019-01-22T00:49:27.863Z,-2.70
2019-01-22T00:52:04.597Z,-2.70
2019-01-22T00:54:36.908Z,-2.60
2019-01-22T00:57:29.653Z,-2.50
2019-01-22T01:00:01.093Z,-2.60
2019-01-22T01:02:33.745Z,-2.70
2019-01-22T01:05:04.923Z,-2.60
2019-01-22T01:07:35.757Z,-2.60
2019-01-22T01:10:11.261Z,-2.60
2019-01-22T01:12:48.885Z,-2.60
2019-01-22T01:17:59.741Z,-2.70
2019-01-22T01:20:30.289Z,-2.80
2019-01-22T01:23:08.844Z,-2.80
2019-01-22T01:26:04.442Z,-2.80
2019-01-22T01:28:44.847Z,-2.80
2019-01-22T01:31:39.029Z,-2.80
2019-01-22T01:34:19.991Z,-2.80
2019-01-22T01:36:51.760Z,-2.80
2019-01-22T01:39:23.169Z,-2.80
2019-01-22T01:41:54.727Z,-2.90
2019-01-22T01:44:25.180Z,-3.00
2019-01-22T01:47:02.347Z,-2.90
2019-01-22T01:49:33.114Z,-2.90
2019-01-22T01:52:03.773Z,-2.80
2019-01-22T01:54:52.174Z,-2.90
2019-01-22T01:57:27.294Z,-2.90
2019-01-22T01:59:59.590Z,-2.90
2019-01-22T02:02:50.289Z,-2.90
2019-01-22T02:05:18.082Z,-2.90
2019-01-22T02:07:52.572Z,-3.00
2019-01-22T02:10:29.752Z,-2.90
2019-01-22T02:13:31.736Z,-3.00
2019-01-22T02:16:37.329Z,-3.00
2019-01-22T02:19:41.416Z,-2.90
2019-01-22T02:22:48.790Z,-3.00
2019-01-22T02:25:34.181Z,-3.30
2019-01-22T02:28:43.574Z,-3.50
2019-01-22T02:32:02.805Z,-3.50
2019-01-22T02:35:07.639Z,-3.30
2019-01-22T02:38:21.062Z,-3.30
2019-01-22T02:41:30.819Z,-3.10
2019-01-22T02:44:36.740Z,-3.10
2019-01-22T02:47:57.261Z,-3.10
2019-01-22T02:50:53.871Z,-3.10
2019-01-22T02:54:13.771Z,-3.00
2019-01-22T02:57:12.375Z,-3.00
2019-01-22T03:00:37.249Z,-3.00
2019-01-22T03:04:00.568Z,-3.00
2019-01-22T03:07:20.909Z,-3.00
2019-01-22T03:10:25.419Z,-2.90
2019-01-22T03:13:42.993Z,-2.90
2019-01-22T03:17:11.992Z,-3.00
2019-01-22T03:20:27.347Z,-2.90
2019-01-22T03:23:46.178Z,-2.90
2019-01-22T03:26:51.449Z,-2.90
2019-01-22T03:30:12.439Z,-2.80
2019-01-22T03:33:10.829Z,-2.80
2019-01-22T03:36:29.016Z,-2.80
2019-01-22T03:39:10.704Z,-2.90
2019-01-22T03:42:25.181Z,-2.90
2019-01-22T03:46:02.584Z,-2.90
2019-01-22T03:49:23.755Z,-2.80
2019-01-22T03:52:45.383Z,-2.90
2019-01-22T03:56:04.787Z,-2.80
2019-01-22T03:58:39.042Z,-2.90
2019-01-22T04:01:15.311Z,-2.80
2019-01-22T04:03:45.655Z,-2.80
2019-01-22T04:06:49.807Z,-2.80
2019-01-22T04:09:42.369Z,-2.80
2019-01-22T04:12:12.506Z,-2.80
2019-01-22T04:14:42.633Z,-2.80
2019-01-22T04:17:15.572Z,-3.00
2019-01-22T04:19:46.629Z,-2.90
2019-01-22T04:22:32.663Z,-2.90
2019-01-22T04:25:21.711Z,-2.90
2019-01-22T04:28:13.679Z,-2.90
2019-01-22T04:31:12.381Z,-2.90
2019-01-22T04:34:30.855Z,-3.10
2019-01-22T04:38:01.642Z,-2.90
2019-01-22T04:44:59.983Z,-3.20
2019-01-22T04:48:00.761Z,-3.00
2019-01-22T04:51:31.827Z,-2.90
2019-01-22T04:54:33.166Z,-2.90
2019-01-22T04:57:18.967Z,-2.80
2019-01-22T05:00:13.959Z,-2.80
2019-01-22T05:03:37.365Z,-2.80
2019-01-22T05:06:44.586Z,-2.80
2019-01-22T05:09:56.668Z,-2.90
2019-01-22T05:13:08.069Z,-2.80
2019-01-22T05:16:06.983Z,-2.80
2019-01-22T05:19:25.756Z,-2.80
2019-01-22T05:22:30.008Z,-3.00
2019-01-22T05:25:42.578Z,-3.10
2019-01-22T05:28:50.695Z,-3.00
2019-01-22T05:32:05.412Z,-3.20
2019-01-22T05:35:09.476Z,-3.20
2019-01-22T05:38:11.348Z,-3.00
2019-01-22T05:41:26.817Z,-3.00
2019-01-22T05:44:46.789Z,-3.10
2019-01-22T05:47:46.631Z,-3.00
2019-01-22T05:50:54.946Z,-2.90
2019-01-22T05:54:04.407Z,-2.80
2019-01-22T05:56:57.834Z,-2.80
2019-01-22T06:00:03.765Z,-2.90
2019-01-22T06:02:54.235Z,-3.00
2019-01-22T06:05:50.581Z,-3.00
2019-01-22T06:08:55.407Z,-3.00
2019-01-22T06:12:17.842Z,-3.00
2019-01-22T06:15:19.586Z,-2.90
2019-01-22T06:18:43.646Z,-3.10
2019-01-22T06:21:51.023Z,-3.10
2019-01-22T06:25:30.520Z,-2.90
2019-01-22T06:28:28.377Z,-2.90
2019-01-22T06:31:22.184Z,-2.80
2019-01-22T06:34:21.133Z,-2.80
2019-01-22T06:37:21.831Z,-2.80
2019-01-22T06:40:05.753Z,-2.80
2019-01-22T06:43:31.132Z,-2.90
2019-01-22T06:46:27.942Z,-2.90
2019-01-22T06:49:42.843Z,-2.90
2019-01-22T06:52:56.264Z,-3.20
2019-01-22T06:56:17.857Z,-3.10
2019-01-22T06:59:19.486Z,-3.00
2019-01-22T07:02:39.328Z,-3.10
2019-01-22T07:05:52.892Z,-3.20
2019-01-22T07:16:12.721Z,-3.00
2019-01-22T07:29:51.087Z,-3.20
2019-01-22T07:32:29.941Z,-3.00
2019-01-22T07:35:42.038Z,-2.90
2019-01-22T07:38:52.671Z,-2.90
2019-01-22T07:41:49.982Z,-2.90
2019-01-22T07:44:34.254Z,-2.80
2019-01-22T07:47:28.713Z,-2.80
2019-01-22T07:50:38.879Z,-2.70
2019-01-22T07:56:53.150Z,-2.60
2019-01-22T08:12:02.023Z,-2.30
2019-01-22T08:19:47.419Z,-2.20
2019-01-22T08:26:54.076Z,-2.10
2019-01-22T08:29:42.535Z,-2.10
2019-01-22T08:33:14.768Z,-2.00
2019-01-22T08:36:36.853Z,-2.00
2019-01-22T08:39:54.798Z,-1.90
2019-01-22T08:54:13.304Z,-1.50
2019-01-22T08:57:20.345Z,-1.50
2019-01-22T09:00:19.358Z,-1.50
2019-01-22T09:03:31.089Z,-1.50
2019-01-22T09:09:42.928Z,-1.50
2019-01-22T09:13:20.978Z,-1.30
2019-01-22T09:16:49.722Z,-1.30
2019-01-22T09:19:49.916Z,-1.20
2019-01-22T09:23:52.168Z,-1.10
2019-01-22T09:27:21.564Z,-1.10
2019-01-22T09:30:36.708Z,-1.10
2019-01-22T09:33:19.228Z,-1.20
2019-01-22T09:36:50.400Z,-1.10
2019-01-22T09:39:14.046Z,-1.10
2019-01-22T09:41:31.831Z,-1.00
2019-01-22T09:44:02.785Z,-1.00
2019-01-22T09:46:34.659Z,-1.00
2019-01-22T09:49:06.081Z,-1.00
2019-01-22T09:51:48.829Z,-0.90
2019-01-22T09:54:23.442Z,-0.90
2019-01-22T09:56:59.336Z,-0.80
2019-01-22T09:59:42.682Z,-0.90
2019-01-22T10:02:16.085Z,-0.80
2019-01-22T10:05:02.471Z,-0.70
2019-01-22T10:08:02.716Z,-0.70
2019-01-22T10:11:40.323Z,-0.70
2019-01-22T10:14:11.596Z,-0.70
2019-01-22T10:17:24.353Z,-0.60
2019-01-22T10:20:06.513Z,-0.60
2019-01-22T10:22:38.896Z,-0.70
2019-01-22T10:25:19.118Z,-0.70
2019-01-22T10:27:51.148Z,-0.70
2019-01-22T10:30:44.848Z,-0.60
2019-01-22T10:33:51.105Z,-0.60
2019-01-22T10:36:45.007Z,-0.50
2019-01-22T10:39:21.609Z,-0.50
2019-01-22T10:45:11.291Z,-0.70
2019-01-22T10:47:47.714Z,-0.80
2019-01-22T10:50:36.242Z,-0.70
2019-01-22T10:53:57.636Z,-0.60
2019-01-22T10:57:34.051Z,-0.60
2019-01-22T11:01:13.363Z,-0.50
2019-01-22T11:04:53.988Z,-0.60
2019-01-22T11:07:30.782Z,-0.50
2019-01-22T11:11:12.984Z,-0.50
2019-01-22T11:13:57.692Z,-0.40
2019-01-22T11:16:40.289Z,-0.50
2019-01-22T11:20:11.679Z,-0.30
2019-01-22T11:23:41.021Z,-0.30
2019-01-22T11:26:13.636Z,-0.50
2019-01-22T11:28:47.882Z,-0.40
2019-01-22T11:38:13.279Z,-0.40
2019-01-22T11:40:47.748Z,-0.40
2019-01-22T11:43:17.518Z,-0.50
2019-01-22T11:45:47.422Z,-0.40
2019-01-22T11:48:17.545Z,-0.30
2019-01-22T11:50:47.288Z,-0.30
2019-01-22T11:53:17.351Z,-0.40
2019-01-22T11:55:50.586Z,-0.40
2019-01-22T11:58:22.038Z,-0.40
2019-01-22T12:00:57.046Z,-0.40
2019-01-22T12:03:26.387Z,-0.30
2019-01-22T12:05:56.362Z,-0.30
2019-01-22T12:08:26.918Z,-0.30
2019-01-22T12:10:56.612Z,-0.30
2019-01-22T12:13:26.395Z,-0.40
2019-01-22T12:15:57.387Z,-0.30
2019-01-22T12:18:27.233Z,-0.30
2019-01-22T12:20:56.656Z,-0.20
2019-01-22T12:23:26.009Z,-0.20
2019-01-22T12:25:57.413Z,-0.20
2019-01-22T12:28:27.344Z,-0.20
2019-01-22T12:30:56.925Z,-0.20
2019-01-22T12:33:26.495Z,-0.10
2019-01-22T12:35:55.998Z,-0.10
2019-01-22T12:38:25.443Z,-0.10
2019-01-22T12:40:55.158Z,-0.10
2019-01-22T12:43:24.886Z,-0.10
2019-01-22T12:45:54.985Z,-0.10
2019-01-22T12:48:25.040Z,-0.10
2019-01-22T12:50:54.659Z,-0.10
2019-01-22T12:53:24.011Z,0.00
2019-01-22T12:55:53.360Z,0.00
2019-01-22T12:58:22.595Z,0.00
2019-01-22T13:00:52.276Z,0.00
2019-01-22T13:03:21.930Z,0.10
2019-01-22T13:05:55.087Z,0.00
2019-01-22T13:08:25.067Z,0.00
2019-01-22T13:10:55.791Z,0.00
2019-01-22T13:13:25.829Z,0.00
2019-01-22T13:15:55.894Z,0.10
2019-01-22T13:18:25.438Z,0.10
2019-01-22T13:20:55.602Z,0.20
2019-01-22T13:23:25.454Z,0.20
2019-01-22T13:25:54.843Z,0.20
2019-01-22T13:28:24.678Z,0.20
2019-01-22T13:30:55.104Z,0.30
2019-01-22T13:33:25.066Z,0.20
2019-01-22T13:35:54.582Z,0.20
2019-01-22T13:38:25.168Z,0.30
2019-01-22T13:40:54.921Z,0.30
2019-01-22T13:43:24.849Z,0.30
2019-01-22T13:45:54.862Z,0.40
2019-01-22T13:48:25.460Z,0.40
2019-01-22T13:50:55.513Z,0.40
2019-01-22T13:53:26.274Z,0.40
2019-01-22T13:55:56.176Z,0.40
2019-01-22T13:58:25.397Z,0.30
2019-01-22T14:00:55.518Z,0.30
2019-01-22T14:03:25.052Z,0.20
2019-01-22T14:05:56.811Z,0.30
2019-01-22T14:08:26.572Z,0.30
2019-01-22T14:10:56.435Z,0.30
2019-01-22T14:13:26.425Z,0.20
2019-01-22T14:15:56.033Z,0.20
2019-01-22T14:18:26.322Z,0.30
2019-01-22T14:20:55.854Z,0.30
2019-01-22T14:23:25.332Z,0.30
2019-01-22T14:25:54.841Z,0.30
2019-01-22T14:28:24.659Z,0.30
2019-01-22T14:30:54.472Z,0.30
2019-01-22T14:33:24.153Z,0.40
2019-01-22T14:35:54.213Z,0.40
2019-01-22T14:38:24.498Z,0.40
2019-01-22T14:40:54.329Z,0.40
2019-01-22T14:43:24.490Z,0.40
2019-01-22T14:45:55.310Z,0.40
2019-01-22T14:48:25.426Z,0.50
2019-01-22T14:50:55.327Z,0.40
2019-01-22T14:53:25.088Z,0.40
2019-01-22T14:55:54.803Z,0.30
2019-01-22T14:58:27.532Z,0.30
2019-01-22T15:00:57.467Z,0.30
2019-01-22T15:03:26.959Z,0.30
2019-01-22T15:05:56.277Z,0.30
2019-01-22T15:08:25.443Z,0.20
2019-01-22T15:10:55.339Z,0.20
2019-01-22T15:13:25.490Z,0.20
2019-01-22T15:15:56.346Z,0.20
2019-01-22T15:18:26.066Z,0.20
2019-01-22T15:20:55.928Z,0.30
2019-01-22T15:23:25.471Z,0.20
2019-01-22T15:25:55.723Z,0.30
2019-01-22T15:28:25.209Z,0.20
2019-01-22T15:30:55.178Z,0.10
2019-01-22T15:33:24.545Z,0.10
2019-01-22T15:35:54.129Z,0.10
2019-01-22T15:38:24.019Z,0.00
2019-01-22T15:40:53.743Z,0.00
2019-01-22T15:43:24.111Z,-0.10
2019-01-22T15:45:54.038Z,0.00
2019-01-22T15:48:24.567Z,0.00
2019-01-22T15:50:54.951Z,-0.10
2019-01-22T15:53:24.763Z,-0.20
2019-01-22T15:55:54.189Z,-0.20
2019-01-22T15:58:24.340Z,-0.30
2019-01-22T16:00:53.582Z,-0.20
2019-01-22T16:03:22.958Z,-0.20
2019-01-22T16:05:52.577Z,-0.10
2019-01-22T16:08:22.426Z,-0.10
2019-01-22T16:10:52.061Z,-0.10
2019-01-22T16:13:21.901Z,-0.10
2019-01-22T16:15:51.858Z,-0.10
2019-01-22T16:18:21.973Z,-0.10
2019-01-22T16:20:52.032Z,-0.10
2019-01-22T16:23:21.425Z,-0.20
2019-01-22T16:25:51.529Z,-0.10
2019-01-22T16:31:09.246Z,-0.10
2019-01-22T16:33:38.939Z,-0.20
2019-01-22T16:36:08.429Z,-0.10
2019-01-22T16:38:38.061Z,-0.10
2019-01-22T16:41:07.785Z,-0.10
2019-01-22T16:43:38.127Z,-0.20
2019-01-22T16:46:09.551Z,-0.10
2019-01-22T16:48:42.452Z,-0.10
2019-01-22T16:51:11.878Z,-0.10
2019-01-22T16:53:41.226Z,-0.20
2019-01-22T16:56:11.394Z,-0.20
2019-01-22T16:58:41.424Z,-0.20
2019-01-22T17:01:12.268Z,-0.20
2019-01-22T17:03:41.902Z,-0.20
2019-01-22T17:06:11.962Z,-0.20
2019-01-22T17:08:42.158Z,-0.20
2019-01-22T17:11:11.963Z,-0.20
2019-01-22T17:13:41.930Z,-0.20
2019-01-22T17:16:11.395Z,-0.20
2019-01-22T17:18:41.465Z,-0.20
2019-01-22T17:21:10.899Z,0.10
2019-01-22T17:23:40.973Z,0.00
2019-01-22T17:26:10.778Z,0.00
2019-01-22T17:28:40.634Z,0.10
2019-01-22T17:31:28.107Z,0.10
2019-01-22T17:34:01.536Z,-0.10
2019-01-22T17:36:31.402Z,-0.10
2019-01-22T17:39:00.795Z,-0.10
2019-01-22T17:41:30.232Z,0.00
2019-01-22T17:44:00.023Z,0.00
2019-01-22T17:50:26.725Z,0.10
2019-01-22T17:52:58.476Z,0.20
2019-01-22T17:56:09.117Z,0.20
2019-01-22T17:59:28.226Z,0.30
2019-01-22T18:05:29.146Z,0.30
2019-01-22T18:08:14.231Z,0.30
2019-01-22T18:10:45.996Z,0.30
2019-01-22T18:13:19.167Z,0.20
2019-01-22T18:15:49.662Z,0.30
2019-01-22T18:18:22.188Z,0.30
2019-01-22T18:20:55.593Z,0.30
2019-01-22T18:23:35.505Z,0.30
2019-01-22T18:26:25.323Z,0.20
2019-01-22T18:29:20.439Z,0.10
2019-01-22T18:32:21.304Z,0.00
2019-01-22T18:35:04.734Z,0.10
2019-01-22T18:37:44.581Z,0.20
2019-01-22T18:40:23.396Z,0.00
2019-01-22T18:42:55.052Z,0.00
2019-01-22T18:49:13.514Z,0.10
2019-01-22T18:51:49.157Z,0.20
2019-01-22T18:54:23.618Z,0.10
2019-01-22T18:56:59.155Z,0.10
2019-01-22T18:59:29.649Z,0.10
2019-01-22T19:02:09.916Z,0.10
2019-01-22T19:04:40.410Z,0.10
2019-01-22T19:07:15.848Z,-0.10
2019-01-22T19:09:46.571Z,0.00
2019-01-22T19:12:33.168Z,0.00
2019-01-22T19:15:05.149Z,0.00
2019-01-22T19:17:38.743Z,0.00
2019-01-22T19:20:25.910Z,-0.30
2019-01-22T19:23:02.405Z,-0.40
2019-01-22T19:25:36.777Z,-0.30
2019-01-22T19:28:08.831Z,-0.10
2019-01-22T19:30:43.494Z,-0.30
2019-01-22T19:33:13.942Z,-0.20
2019-01-22T19:35:53.548Z,-0.20
2019-01-22T19:38:27.775Z,-0.20
2019-01-22T19:40:58.917Z,-0.20
2019-01-22T19:43:32.539Z,-0.10
2019-01-22T19:46:02.982Z,-0.30
2019-01-22T19:48:47.161Z,-0.30
2019-01-22T19:51:17.907Z,-0.30
2019-01-22T19:53:50.480Z,-0.30
2019-01-22T19:56:21.396Z,-0.40
2019-01-22T19:58:59.712Z,-0.30
2019-01-22T20:01:29.770Z,-0.20
2019-01-22T20:03:59.812Z,-0.10
2019-01-22T20:06:29.919Z,-0.10
2019-01-22T20:09:00.346Z,-0.50
2019-01-22T20:11:38.668Z,-0.40
2019-01-22T20:14:11.641Z,-0.40
2019-01-22T20:16:49.613Z,-0.40
2019-01-22T20:19:44.046Z,-0.30
2019-01-22T20:22:14.275Z,-0.30
2019-01-22T20:24:50.477Z,-0.30
2019-01-22T20:27:24.178Z,-0.40
2019-01-22T20:30:04.834Z,-0.50
2019-01-22T20:32:35.284Z,-0.50
2019-01-22T20:35:06.480Z,-0.60
2019-01-22T20:37:43.086Z,-0.50
2019-01-22T20:40:33.351Z,-0.50
2019-01-22T20:43:03.881Z,-0.40
2019-01-22T20:45:46.961Z,-0.30
2019-01-22T20:48:35.399Z,-0.30
2019-01-22T20:51:10.589Z,-0.40
2019-01-22T20:53:41.214Z,-0.40
2019-01-22T20:56:11.365Z,-0.50
2019-01-22T20:58:53.617Z,-0.50
2019-01-22T21:01:16.820Z,-0.50
2019-01-22T21:03:47.294Z,-0.60
2019-01-22T21:06:17.591Z,-0.50
2019-01-22T21:08:47.891Z,-0.70
2019-01-22T21:11:20.311Z,-0.60
2019-01-22T21:13:52.949Z,-0.60
2019-01-22T21:16:23.114Z,-0.50
2019-01-22T21:18:55.923Z,-0.50
2019-01-22T21:21:30.138Z,-0.70
2019-01-22T21:24:00.574Z,-0.70
2019-01-22T21:26:30.829Z,-0.70
2019-01-22T21:29:01.557Z,-0.70
2019-01-22T21:31:31.335Z,-0.80
2019-01-22T21:34:01.327Z,-0.70
2019-01-22T21:36:33.719Z,-0.70
2019-01-22T21:39:05.531Z,-0.80
2019-01-22T21:42:00.323Z,-0.80
2019-01-22T21:44:33.886Z,-0.80
2019-01-22T21:47:07.687Z,-0.90
2019-01-22T21:49:40.236Z,-0.80
2019-01-22T21:52:12.046Z,-0.60
2019-01-22T21:54:41.895Z,-0.60
2019-01-22T21:57:14.315Z,-0.60
2019-01-22T21:59:44.201Z,-0.80
2019-01-22T22:02:14.355Z,-0.70
2019-01-22T22:04:44.099Z,-0.70
2019-01-22T22:07:14.352Z,-0.70
2019-01-22T22:09:49.256Z,-0.60
2019-01-22T22:12:18.993Z,-0.70
2019-01-22T22:14:50.285Z,-0.70
2019-01-22T22:17:20.382Z,-0.70
2019-01-22T22:19:50.226Z,-0.70
2019-01-22T22:22:20.402Z,-0.60
2019-01-22T22:24:50.324Z,-0.60
2019-01-22T22:27:20.188Z,-0.60
2019-01-22T22:29:50.270Z,-0.70
2019-01-22T22:32:24.904Z,-0.70
2019-01-22T22:34:57.321Z,-0.70
2019-01-22T22:37:36.326Z,-0.70
2019-01-22T22:40:14.744Z,-0.60
2019-01-22T22:42:45.226Z,-0.60
2019-01-22T22:45:17.494Z,-0.60
2019-01-22T22:47:48.000Z,-0.80
2019-01-22T22:50:33.035Z,-0.70
2019-01-22T22:53:08.806Z,-0.70
2019-01-22T22:55:38.675Z,-0.70
2019-01-22T22:58:13.075Z,-0.70
2019-01-22T23:01:23.885Z,-0.80
2019-01-22T23:03:55.910Z,-0.80
2019-01-22T23:06:26.519Z,-1.00
2019-01-22T23:08:56.820Z,-0.90
2019-01-22T23:11:27.175Z,-0.80
2019-01-22T23:13:57.861Z,-0.90
2019-01-22T23:16:28.390Z,-0.90
2019-01-22T23:18:59.431Z,-0.90
2019-01-22T23:21:29.974Z,-0.70
2019-01-22T23:24:04.399Z,-0.90
2019-01-22T23:26:34.096Z,-0.90
2019-01-22T23:29:04.316Z,-0.80
2019-01-22T23:31:34.503Z,-0.90
2019-01-22T23:34:11.651Z,-0.90
2019-01-22T23:36:53.899Z,-0.90
2019-01-22T23:39:24.595Z,-1.10
2019-01-22T23:41:55.227Z,-1.10
2019-01-22T23:44:29.006Z,-1.10
2019-01-22T23:47:00.561Z,-1.00
2019-01-22T23:49:31.601Z,-1.10
2019-01-22T23:52:01.808Z,-1.00
2019-01-22T23:54:39.412Z,-0.90
2019-01-22T23:57:09.795Z,-0.90
2019-01-22T23:59:42.543Z,-1.00
